createdAt,value
2023-11-23T00:01:13.454Z,17.60
2023-11-23T00:03:42.504Z,14.90
2023-11-23T00:06:11.051Z,15.00
2023-11-23T00:08:42.718Z,14.10
2023-11-23T00:11:11.289Z,17.10
2023-11-23T00:13:39.637Z,17.00
2023-11-23T00:16:08.589Z,13.60
2023-11-23T00:18:36.834Z,14.50
2023-11-23T00:21:05.185Z,12.60
2023-11-23T00:23:33.602Z,17.50
2023-11-23T00:26:04.285Z,15.00
2023-11-23T00:28:32.521Z,17.20
2023-11-23T00:31:00.953Z,16.20
2023-11-23T00:33:30.154Z,16.80
2023-11-23T00:35:58.661Z,16.10
2023-11-23T00:38:27.009Z,13.20
2023-11-23T00:40:55.273Z,14.60
2023-11-23T00:43:23.672Z,17.00
2023-11-23T00:45:52.158Z,13.50
2023-11-23T00:48:21.617Z,15.60
2023-11-23T00:50:50.472Z,14.50
2023-11-23T00:53:18.547Z,15.30
2023-11-23T00:55:46.900Z,12.50
2023-11-23T00:58:15.060Z,17.10
2023-11-23T01:00:44.908Z,15.20
2023-11-23T01:03:13.454Z,12.40
2023-11-23T01:05:41.827Z,17.20
2023-11-23T01:08:10.329Z,14.60
2023-11-23T01:10:38.803Z,14.80
2023-11-23T01:13:07.484Z,16.30
2023-11-23T01:15:35.813Z,15.20
2023-11-23T01:18:04.134Z,17.00
2023-11-23T01:20:32.768Z,18.20
2023-11-23T01:23:01.129Z,17.70
2023-11-23T01:25:30.001Z,17.20
2023-11-23T01:27:59.654Z,17.00
2023-11-23T01:30:28.053Z,16.10
2023-11-23T01:32:57.741Z,14.70
2023-11-23T01:35:26.033Z,16.10
2023-11-23T01:37:54.425Z,20.70
2023-11-23T01:40:22.776Z,15.50
2023-11-23T01:42:51.166Z,14.50
2023-11-23T01:45:19.612Z,18.90
2023-11-23T01:47:48.260Z,19.10
2023-11-23T01:50:18.155Z,21.20
2023-11-23T01:52:47.352Z,17.90
2023-11-23T01:55:16.324Z,19.90
2023-11-23T01:57:47.776Z,17.80
2023-11-23T02:00:16.362Z,16.20
2023-11-23T02:02:45.396Z,16.50
2023-11-23T02:05:14.103Z,20.40
2023-11-23T02:07:43.585Z,18.40
2023-11-23T02:10:12.136Z,15.40
2023-11-23T02:12:40.721Z,16.40
2023-11-23T02:15:10.856Z,15.80
2023-11-23T02:17:41.243Z,16.80
2023-11-23T02:20:11.630Z,16.10
2023-11-23T02:22:40.281Z,15.60
2023-11-23T02:25:08.694Z,18.90
2023-11-23T02:27:37.167Z,17.90
2023-11-23T02:30:09.028Z,20.40
2023-11-23T02:32:37.474Z,18.20
2023-11-23T02:35:06.248Z,15.20
2023-11-23T02:37:34.379Z,19.50
2023-11-23T02:40:02.712Z,18.10
2023-11-23T02:42:31.156Z,25.30
2023-11-23T02:45:00.422Z,20.00
2023-11-23T02:47:29.008Z,19.10
2023-11-23T02:49:57.295Z,19.90
2023-11-23T02:52:26.118Z,21.20
2023-11-23T02:54:54.742Z,25.30
2023-11-23T02:57:22.981Z,14.90
2023-11-23T02:59:51.827Z,18.40
2023-11-23T03:02:20.485Z,18.40
2023-11-23T03:04:48.976Z,19.40
2023-11-23T03:07:19.269Z,19.10
2023-11-23T03:09:47.856Z,18.30
2023-11-23T03:12:16.557Z,18.60
2023-11-23T03:14:45.894Z,18.00
2023-11-23T03:17:14.480Z,21.20
2023-11-23T03:19:42.844Z,20.80
2023-11-23T03:22:11.210Z,17.00
2023-11-23T03:24:39.738Z,22.60
2023-11-23T03:27:10.814Z,23.60
2023-11-23T03:29:39.083Z,26.10
2023-11-23T03:32:07.584Z,23.10
2023-11-23T03:34:35.889Z,28.10
2023-11-23T03:37:04.395Z,16.40
2023-11-23T03:39:32.676Z,18.60
2023-11-23T03:42:02.492Z,15.50
2023-11-23T03:44:30.910Z,13.40
2023-11-23T03:46:59.097Z,16.70
2023-11-23T03:49:27.398Z,18.70
2023-11-23T03:51:55.836Z,16.00
2023-11-23T03:54:24.307Z,15.90
2023-11-23T03:56:52.611Z,17.50
2023-11-23T03:59:20.873Z,22.00
2023-11-23T04:01:50.232Z,13.60
2023-11-23T04:04:18.831Z,18.60
2023-11-23T04:06:47.073Z,15.10
2023-11-23T04:09:15.490Z,18.40
2023-11-23T04:11:44.284Z,15.40
2023-11-23T04:14:15.640Z,18.40
2023-11-23T04:16:43.977Z,17.00
2023-11-23T04:19:12.439Z,19.30
2023-11-23T04:21:40.759Z,25.70
2023-11-23T04:24:09.389Z,18.90
2023-11-23T04:26:37.599Z,18.60
2023-11-23T04:29:05.899Z,19.60
2023-11-23T04:31:34.282Z,16.30
2023-11-23T04:34:03.615Z,15.90
2023-11-23T04:36:32.354Z,18.00
2023-11-23T04:39:00.992Z,18.00
2023-11-23T04:41:29.794Z,18.80
2023-11-23T04:43:58.343Z,19.20
2023-11-23T04:46:26.815Z,15.90
2023-11-23T04:48:55.149Z,20.10
2023-11-23T04:51:23.402Z,17.70
2023-11-23T04:53:52.096Z,20.20
2023-11-23T04:56:21.011Z,19.50
2023-11-23T04:58:49.576Z,20.30
2023-11-23T05:01:18.190Z,18.70
2023-11-23T05:03:46.523Z,19.50
2023-11-23T05:06:16.878Z,18.70
2023-11-23T05:08:47.670Z,21.40
2023-11-23T05:11:16.371Z,22.90
2023-11-23T05:13:44.610Z,25.10
2023-11-23T05:16:13.076Z,26.60
2023-11-23T05:18:44.482Z,32.70
2023-11-23T05:21:13.079Z,23.30
2023-11-23T05:23:41.207Z,22.60
2023-11-23T05:26:09.507Z,25.10
2023-11-23T05:28:37.746Z,26.10
2023-11-23T05:31:05.776Z,26.20
2023-11-23T05:33:34.007Z,28.00
2023-11-23T05:36:02.270Z,21.40
2023-11-23T05:38:30.641Z,27.90
2023-11-23T05:40:59.007Z,21.70
2023-11-23T05:43:27.370Z,20.60
2023-11-23T05:45:55.693Z,23.10
2023-11-23T05:48:24.039Z,25.30
2023-11-23T05:50:54.236Z,27.50
2023-11-23T05:53:22.460Z,22.90
2023-11-23T05:55:50.683Z,21.60
2023-11-23T05:58:19.201Z,20.30
2023-11-23T06:00:52.185Z,20.80
2023-11-23T06:03:26.541Z,21.00
2023-11-23T06:05:55.496Z,25.10
2023-11-23T06:08:23.860Z,25.00
2023-11-23T06:10:52.469Z,20.60
2023-11-23T06:13:20.930Z,21.40
2023-11-23T06:15:50.290Z,20.90
2023-11-23T06:18:18.747Z,21.30
2023-11-23T06:20:47.589Z,27.30
2023-11-23T06:23:15.842Z,29.70
2023-11-23T06:25:44.255Z,34.70
2023-11-23T06:28:16.204Z,35.60
2023-11-23T06:30:47.618Z,47.00
2023-11-23T06:33:16.103Z,48.70
2023-11-23T06:35:45.789Z,37.20
2023-11-23T06:38:14.360Z,38.50
2023-11-23T06:40:42.942Z,33.00
2023-11-23T06:43:11.278Z,39.40
2023-11-23T06:45:40.546Z,38.00
2023-11-23T06:48:09.370Z,35.60
2023-11-23T06:50:37.758Z,45.40
2023-11-23T06:53:06.374Z,29.40
2023-11-23T06:55:35.050Z,28.40
2023-11-23T06:58:04.489Z,30.90
2023-11-23T07:00:33.163Z,30.80
2023-11-23T07:03:01.820Z,27.60
2023-11-23T07:05:30.320Z,34.20
2023-11-23T07:07:58.888Z,31.00
2023-11-23T07:10:28.221Z,24.20
2023-11-23T07:12:57.033Z,26.60
2023-11-23T07:15:28.002Z,24.10
2023-11-23T07:18:00.776Z,32.10
2023-11-23T07:20:29.867Z,30.10
2023-11-23T07:22:58.728Z,31.70
2023-11-23T07:25:27.862Z,35.30
2023-11-23T07:27:57.165Z,35.00
2023-11-23T07:30:26.273Z,30.70
2023-11-23T07:32:54.994Z,28.20
2023-11-23T07:35:23.656Z,33.60
2023-11-23T07:37:52.464Z,30.20
2023-11-23T07:40:23.511Z,28.60
2023-11-23T07:42:52.173Z,24.20
2023-11-23T07:45:21.015Z,26.40
2023-11-23T07:47:49.510Z,26.00
2023-11-23T07:50:17.896Z,27.10
2023-11-23T07:52:48.093Z,27.70
2023-11-23T07:55:20.080Z,21.00
2023-11-23T07:57:50.167Z,26.20
2023-11-23T08:00:22.867Z,26.50
2023-11-23T08:02:52.071Z,33.00
2023-11-23T08:05:21.408Z,39.80
2023-11-23T08:07:51.916Z,25.10
2023-11-23T08:10:21.153Z,29.40
2023-11-23T08:12:50.388Z,28.90
2023-11-23T08:15:20.000Z,31.70
2023-11-23T08:17:58.124Z,26.40
2023-11-23T08:20:30.560Z,27.50
2023-11-23T08:22:59.470Z,32.80
2023-11-23T08:25:28.837Z,30.50
2023-11-23T08:27:59.051Z,35.40
2023-11-23T08:30:29.615Z,32.80
2023-11-23T08:33:00.883Z,35.80
2023-11-23T08:35:30.556Z,47.40
2023-11-23T08:38:00.664Z,35.20
2023-11-23T08:40:29.586Z,34.60
2023-11-23T08:42:58.748Z,25.90
2023-11-23T08:45:27.804Z,26.30
2023-11-23T08:47:57.115Z,26.80
2023-11-23T08:50:26.069Z,22.00
2023-11-23T08:52:59.233Z,25.30
2023-11-23T08:55:28.850Z,26.50
2023-11-23T08:57:57.471Z,24.10
2023-11-23T09:00:29.230Z,23.70
2023-11-23T09:02:58.253Z,22.00
2023-11-23T09:05:27.944Z,25.30
2023-11-23T09:07:57.377Z,23.50
2023-11-23T09:10:27.186Z,25.70
2023-11-23T09:12:56.371Z,26.90
2023-11-23T09:15:25.094Z,21.40
2023-11-23T09:17:54.436Z,24.60
2023-11-23T09:20:23.144Z,19.30
2023-11-23T09:22:52.235Z,20.60
2023-11-23T09:25:22.100Z,20.20
2023-11-23T09:27:51.954Z,24.80
2023-11-23T09:30:20.584Z,31.50
2023-11-23T09:32:49.581Z,24.30
2023-11-23T09:35:18.171Z,26.60
2023-11-23T09:37:47.262Z,21.40
2023-11-23T09:40:18.796Z,18.80
2023-11-23T09:42:50.960Z,25.30
2023-11-23T09:45:24.022Z,19.10
2023-11-23T09:47:58.436Z,25.50
2023-11-23T09:50:34.755Z,20.10
2023-11-23T09:53:09.901Z,25.80
2023-11-23T09:55:39.286Z,23.20
2023-11-23T09:58:08.016Z,20.10
2023-11-23T10:00:37.587Z,20.40
2023-11-23T10:03:09.231Z,22.70
2023-11-23T10:05:40.228Z,21.70
2023-11-23T10:08:10.901Z,19.30
2023-11-23T10:10:42.242Z,20.20
2023-11-23T10:13:10.986Z,19.80
2023-11-23T10:15:40.021Z,16.30
2023-11-23T10:18:08.649Z,23.60
2023-11-23T10:20:40.025Z,19.60
2023-11-23T10:23:09.470Z,15.90
2023-11-23T10:25:38.399Z,18.50
2023-11-23T10:28:07.419Z,13.70
2023-11-23T10:30:39.084Z,17.60
2023-11-23T10:33:12.852Z,18.00
2023-11-23T10:35:54.356Z,22.50
2023-11-23T10:38:35.487Z,18.50
2023-11-23T10:41:16.213Z,14.80
2023-11-23T10:43:47.522Z,19.20
2023-11-23T10:46:20.051Z,18.80
2023-11-23T10:48:50.593Z,20.00
2023-11-23T10:51:22.426Z,14.60
2023-11-23T10:53:51.106Z,16.00
2023-11-23T10:56:24.235Z,17.30
2023-11-23T10:58:58.656Z,15.00
2023-11-23T11:01:29.191Z,14.80
2023-11-23T11:03:58.820Z,14.80
2023-11-23T11:06:28.428Z,14.70
2023-11-23T11:08:57.162Z,13.70
2023-11-23T11:11:27.150Z,20.20
2023-11-23T11:14:03.716Z,13.60
2023-11-23T11:16:40.774Z,12.90
2023-11-23T11:19:15.207Z,16.60
2023-11-23T11:21:46.246Z,13.20
2023-11-23T11:24:20.247Z,14.60
2023-11-23T11:26:49.954Z,15.40
2023-11-23T11:29:19.145Z,14.10
2023-11-23T11:31:50.997Z,15.70
2023-11-23T11:34:26.652Z,14.00
2023-11-23T11:37:00.217Z,14.90
2023-11-23T11:39:33.389Z,16.70
2023-11-23T11:42:02.966Z,17.10
2023-11-23T11:44:35.073Z,15.60
2023-11-23T11:47:07.711Z,16.80
2023-11-23T11:49:36.599Z,18.70
2023-11-23T11:52:08.880Z,15.60
2023-11-23T11:54:39.793Z,16.90
2023-11-23T11:57:10.137Z,14.30
2023-11-23T11:59:40.022Z,17.60
2023-11-23T12:02:11.733Z,15.00
2023-11-23T12:04:42.935Z,15.60
2023-11-23T12:07:17.970Z,13.10
2023-11-23T12:09:55.442Z,12.70
2023-11-23T12:12:24.270Z,15.30
2023-11-23T12:14:52.929Z,13.00
2023-11-23T12:17:22.199Z,12.50
2023-11-23T12:19:56.516Z,14.80
2023-11-23T12:22:27.913Z,16.40
2023-11-23T12:25:06.323Z,15.00
2023-11-23T12:27:35.833Z,13.50
2023-11-23T12:30:06.143Z,15.10
2023-11-23T12:32:35.234Z,15.90
2023-11-23T12:35:03.793Z,18.90
2023-11-23T12:37:32.516Z,14.90
2023-11-23T12:40:01.438Z,13.00
2023-11-23T12:42:30.396Z,14.60
2023-11-23T12:44:58.950Z,16.30
2023-11-23T12:47:31.193Z,14.60
2023-11-23T12:49:59.991Z,12.10
2023-11-23T12:52:34.453Z,13.60
2023-11-23T12:55:03.221Z,12.80
2023-11-23T12:57:31.787Z,11.90
2023-11-23T13:00:01.816Z,13.00
2023-11-23T13:02:30.484Z,13.20
2023-11-23T13:04:59.698Z,12.40
2023-11-23T13:07:28.458Z,21.30
2023-11-23T13:09:57.054Z,16.70
2023-11-23T13:12:25.805Z,14.60
2023-11-23T13:14:54.417Z,14.30
2023-11-23T13:17:24.798Z,13.70
2023-11-23T13:19:54.471Z,15.00
2023-11-23T13:22:23.271Z,11.90
2023-11-23T13:24:59.338Z,13.60
2023-11-23T13:27:29.119Z,16.00
2023-11-23T13:29:58.120Z,14.20
2023-11-23T13:32:27.239Z,18.70
2023-11-23T13:34:56.714Z,12.60
2023-11-23T13:37:25.374Z,15.50
2023-11-23T13:39:54.383Z,17.70
2023-11-23T13:42:23.491Z,15.40
2023-11-23T13:44:52.245Z,13.90
2023-11-23T13:47:20.957Z,15.40
2023-11-23T13:49:49.507Z,13.40
2023-11-23T13:52:18.632Z,16.40
2023-11-23T13:54:48.943Z,17.10
2023-11-23T13:57:18.841Z,13.90
2023-11-23T13:59:47.666Z,14.50
2023-11-23T14:02:21.931Z,15.10
2023-11-23T14:04:51.205Z,13.60
2023-11-23T14:07:20.004Z,14.00
2023-11-23T14:09:48.694Z,13.80
2023-11-23T14:12:17.365Z,14.00
2023-11-23T14:14:46.277Z,16.30
2023-11-23T14:17:15.183Z,15.20
2023-11-23T14:19:43.902Z,14.90
2023-11-23T14:22:12.411Z,25.60
2023-11-23T14:24:41.316Z,16.60
2023-11-23T14:27:11.257Z,18.70
2023-11-23T14:29:41.424Z,14.70
2023-11-23T14:32:10.552Z,16.60
2023-11-23T14:34:45.221Z,14.10
2023-11-23T14:37:15.118Z,15.60
2023-11-23T14:39:47.186Z,20.80
2023-11-23T14:42:18.292Z,14.10
2023-11-23T14:44:48.457Z,22.40
2023-11-23T14:47:18.523Z,19.50
2023-11-23T14:49:46.985Z,19.70
2023-11-23T14:52:17.364Z,17.00
2023-11-23T14:54:49.905Z,15.10
2023-11-23T14:57:19.859Z,18.00
2023-11-23T14:59:48.783Z,13.60
2023-11-23T15:02:17.158Z,11.40
2023-11-23T15:04:45.824Z,13.40
2023-11-23T15:07:14.301Z,11.90
2023-11-23T15:09:44.404Z,14.30
2023-11-23T15:12:15.555Z,14.00
2023-11-23T15:14:44.123Z,16.40
2023-11-23T15:17:12.685Z,14.70
2023-11-23T15:19:41.103Z,15.70
2023-11-23T15:22:09.689Z,15.70
2023-11-23T15:24:38.137Z,19.30
2023-11-23T15:27:09.015Z,23.00
2023-11-23T15:29:38.208Z,16.80
2023-11-23T15:32:07.859Z,25.20
2023-11-23T15:34:37.129Z,24.30
2023-11-23T15:37:06.137Z,21.30
2023-11-23T15:39:34.883Z,19.30
2023-11-23T15:42:04.632Z,19.60
2023-11-23T15:44:33.226Z,24.10
2023-11-23T15:47:03.782Z,25.00
2023-11-23T15:49:33.472Z,27.60
2023-11-23T15:52:03.079Z,18.90
2023-11-23T15:54:31.789Z,26.00
2023-11-23T15:57:00.513Z,23.90
2023-11-23T15:59:29.025Z,29.50
2023-11-23T16:01:59.338Z,25.50
2023-11-23T16:04:30.730Z,25.50
2023-11-23T16:07:02.118Z,29.50
2023-11-23T16:09:30.954Z,23.40
2023-11-23T16:12:00.433Z,30.30
2023-11-23T16:14:29.058Z,30.40
2023-11-23T16:16:58.182Z,29.50
2023-11-23T16:19:28.996Z,21.00
2023-11-23T16:21:57.640Z,23.90
2023-11-23T16:24:26.178Z,26.70
2023-11-23T16:26:55.985Z,27.60
2023-11-23T16:29:24.678Z,27.80
2023-11-23T16:31:56.435Z,35.30
2023-11-23T16:34:24.998Z,28.30
2023-11-23T16:36:53.558Z,30.90
2023-11-23T16:39:22.552Z,25.60
2023-11-23T16:41:51.172Z,29.10
2023-11-23T16:44:19.661Z,31.70
2023-11-23T16:46:50.665Z,29.30
2023-11-23T16:49:19.482Z,30.50
2023-11-23T16:51:48.691Z,34.20
2023-11-23T16:54:20.755Z,28.30
2023-11-23T16:56:53.159Z,31.20
2023-11-23T16:59:22.826Z,32.70
2023-11-23T17:01:51.824Z,28.90
2023-11-23T17:04:23.763Z,36.90
2023-11-23T17:06:53.091Z,35.40
2023-11-23T17:09:22.886Z,38.50
2023-11-23T17:11:54.146Z,30.30
2023-11-23T17:14:23.222Z,32.10
2023-11-23T17:16:53.546Z,30.40
2023-11-23T17:19:25.528Z,35.10
2023-11-23T17:21:58.333Z,33.70
2023-11-23T17:24:28.252Z,29.00
2023-11-23T17:26:56.687Z,36.50
2023-11-23T17:29:25.380Z,33.00
2023-11-23T17:31:58.729Z,39.30
2023-11-23T17:34:28.649Z,32.80
2023-11-23T17:36:57.087Z,56.20
2023-11-23T17:39:25.917Z,52.80
2023-11-23T17:41:55.414Z,50.80
2023-11-23T17:44:25.366Z,57.00
2023-11-23T17:46:55.072Z,52.80
2023-11-23T17:49:25.584Z,54.80
2023-11-23T17:51:55.017Z,52.90
2023-11-23T17:54:24.277Z,48.60
2023-11-23T17:56:52.870Z,50.70
2023-11-23T17:59:31.740Z,47.80
2023-11-23T18:02:08.010Z,42.90
2023-11-23T18:04:38.360Z,52.10
2023-11-23T18:07:08.682Z,52.50
2023-11-23T18:09:37.633Z,48.50
2023-11-23T18:12:09.443Z,46.70
2023-11-23T18:14:37.924Z,38.10
2023-11-23T18:17:09.800Z,46.20
2023-11-23T18:19:38.656Z,47.10
2023-11-23T18:22:09.751Z,40.50
2023-11-23T18:24:38.434Z,48.60
2023-11-23T18:27:07.921Z,41.90
2023-11-23T18:29:37.459Z,36.90
2023-11-23T18:32:06.006Z,44.30
2023-11-23T18:34:35.166Z,46.30
2023-11-23T18:37:03.444Z,37.80
2023-11-23T18:39:32.085Z,38.50
2023-11-23T18:42:00.625Z,38.70
2023-11-23T18:44:29.005Z,45.20
2023-11-23T18:46:57.417Z,42.80
2023-11-23T18:49:29.349Z,31.10
2023-11-23T18:51:58.738Z,33.80
2023-11-23T18:54:27.452Z,42.90
2023-11-23T18:56:57.170Z,35.80
2023-11-23T18:59:25.953Z,32.70
2023-11-23T19:01:55.951Z,34.00
2023-11-23T19:04:24.774Z,38.20
2023-11-23T19:06:56.269Z,36.50
2023-11-23T19:09:28.770Z,34.00
2023-11-23T19:11:58.273Z,38.80
2023-11-23T19:14:26.906Z,30.30
2023-11-23T19:16:55.332Z,39.60
2023-11-23T19:19:25.028Z,30.80
2023-11-23T19:21:53.681Z,37.00
2023-11-23T19:24:22.540Z,34.80
2023-11-23T19:26:51.795Z,33.30
2023-11-23T19:29:21.350Z,34.40
2023-11-23T19:31:52.462Z,35.10
2023-11-23T19:34:21.144Z,35.20
2023-11-23T19:36:49.995Z,46.10
2023-11-23T19:39:20.297Z,42.70
2023-11-23T19:41:48.842Z,44.90
2023-11-23T19:44:17.513Z,36.20
2023-11-23T19:46:46.258Z,41.40
2023-11-23T19:49:15.834Z,31.80
2023-11-23T19:51:46.128Z,32.60
2023-11-23T19:54:14.874Z,36.30
2023-11-23T19:56:43.365Z,29.00
2023-11-23T19:59:11.849Z,33.90
2023-11-23T20:01:40.830Z,36.70
2023-11-23T20:04:09.667Z,35.40
2023-11-23T20:06:38.137Z,30.40
2023-11-23T20:09:10.920Z,31.40
2023-11-23T20:11:39.906Z,34.10
2023-11-23T20:14:08.284Z,33.50
2023-11-23T20:16:37.001Z,34.40
2023-11-23T20:19:05.942Z,36.00
2023-11-23T20:21:34.728Z,35.20
2023-11-23T20:24:03.135Z,45.30
2023-11-23T20:26:31.772Z,31.70
2023-11-23T20:29:00.242Z,42.40
2023-11-23T20:31:29.753Z,39.90
2023-11-23T20:33:58.123Z,39.40
2023-11-23T20:36:26.420Z,38.70
2023-11-23T20:38:54.796Z,38.40
2023-11-23T20:41:23.621Z,39.50
2023-11-23T20:43:52.023Z,44.20
2023-11-23T20:46:22.429Z,42.40
2023-11-23T20:48:51.628Z,42.90
2023-11-23T20:51:20.251Z,43.00
2023-11-23T20:53:51.862Z,46.10
2023-11-23T20:56:26.024Z,40.00
2023-11-23T20:58:57.648Z,34.80
2023-11-23T21:01:27.546Z,32.30
2023-11-23T21:03:56.517Z,36.80
2023-11-23T21:06:26.641Z,35.30
2023-11-23T21:08:56.518Z,33.80
2023-11-23T21:11:24.795Z,35.60
2023-11-23T21:13:53.211Z,37.00
2023-11-23T21:16:21.440Z,32.90
2023-11-23T21:18:49.734Z,39.10
2023-11-23T21:21:18.251Z,34.80
2023-11-23T21:23:46.504Z,39.20
2023-11-23T21:26:14.817Z,36.30
2023-11-23T21:28:45.943Z,37.80
2023-11-23T21:31:14.259Z,35.30
2023-11-23T21:33:43.681Z,37.40
2023-11-23T21:36:12.435Z,38.20
2023-11-23T21:38:40.781Z,38.00
2023-11-23T21:41:10.135Z,36.10
2023-11-23T21:43:38.475Z,42.00
2023-11-23T21:46:06.891Z,37.30
2023-11-23T21:48:36.203Z,28.60
2023-11-23T21:51:04.827Z,35.70
2023-11-23T21:53:33.736Z,34.10
2023-11-23T21:56:02.010Z,32.00
2023-11-23T21:58:30.901Z,34.00
2023-11-23T22:00:59.330Z,34.30
2023-11-23T22:03:28.970Z,36.60
2023-11-23T22:05:57.402Z,37.10
2023-11-23T22:08:26.098Z,40.30
2023-11-23T22:10:54.696Z,36.50
2023-11-23T22:13:23.439Z,37.10
2023-11-23T22:15:53.075Z,38.50
2023-11-23T22:18:22.147Z,30.70
2023-11-23T22:20:51.246Z,34.70
2023-11-23T22:23:19.982Z,39.20
2023-11-23T22:25:48.826Z,36.80
2023-11-23T22:28:17.785Z,31.40
2023-11-23T22:30:46.689Z,33.90
2023-11-23T22:33:16.649Z,29.20
2023-11-23T22:35:45.285Z,33.80
2023-11-23T22:38:16.053Z,37.00
2023-11-23T22:40:45.218Z,32.70
2023-11-23T22:43:14.424Z,35.70
2023-11-23T22:45:43.237Z,29.10
2023-11-23T22:48:12.009Z,32.20
2023-11-23T22:50:40.480Z,34.10
2023-11-23T22:53:08.911Z,37.10
2023-11-23T22:55:37.304Z,33.90
2023-11-23T22:58:05.635Z,34.80
2023-11-23T23:00:38.126Z,33.70
2023-11-23T23:03:07.118Z,33.90
2023-11-23T23:05:36.190Z,27.90
2023-11-23T23:08:05.308Z,29.30
2023-11-23T23:10:34.539Z,33.40
2023-11-23T23:13:06.883Z,32.40
2023-11-23T23:15:35.193Z,29.60
2023-11-23T23:18:03.721Z,29.50
2023-11-23T23:20:32.074Z,31.40
2023-11-23T23:23:00.521Z,34.30
2023-11-23T23:25:28.866Z,32.40
2023-11-23T23:27:57.864Z,33.80
2023-11-23T23:30:27.956Z,35.50
2023-11-23T23:32:56.446Z,37.60
2023-11-23T23:35:25.244Z,31.20
2023-11-23T23:37:54.909Z,33.50
2023-11-23T23:40:24.659Z,29.10
2023-11-23T23:42:53.753Z,33.20
2023-11-23T23:45:22.971Z,33.20
2023-11-23T23:47:51.529Z,32.90
2023-11-23T23:50:21.114Z,33.70
2023-11-23T23:52:49.506Z,34.60
2023-11-23T23:55:17.755Z,30.00
2023-11-23T23:57:46.013Z,34.40
